Time;durP1;ratioP1;P1;durP2;ratioP2;P2;SDS_P1;SDS_P2;PMS_P1;PMS_P2;Temp;Humidity;BMP_temperature;BMP_pressure;BME280_temperature;BME280_humidity;BME280_pressure;Samples;Min_cycle;Max_cycle;Signal;HPM_P1;HPM_P2
2021/07/15 00:00:58;;;;;;;5.53;4.20;;;;;;;28.38;49.58;100755.97;128372;1086;64131;-84
2021/07/15 00:03:27;;;;;;;4.87;3.80;;;;;;;28.38;49.49;100750.55;128346;1087;64211;-83
2021/07/15 00:05:57;;;;;;;6.63;3.97;;;;;;;28.38;49.44;100750.55;128371;1086;64205;-83
2021/07/15 00:08:24;;;;;;;6.17;4.00;;;;;;;28.38;49.76;100755.97;128379;1087;64139;-84
2021/07/15 00:11:17;;;;;;;8.07;4.13;;;;;;;28.38;49.72;100748.67;128362;1086;64150;-85
2021/07/15 00:13:43;;;;;;;5.77;3.90;;;;;;;28.37;49.51;100737.97;127870;1087;64091;-84
2021/07/15 00:16:13;;;;;;;5.43;4.13;;;;;;;28.37;49.82;100749.70;127912;1086;64224;-83
2021/07/15 00:18:43;;;;;;;5.60;4.07;;;;;;;28.38;49.97;100745.11;127920;1087;64137;-83
2021/07/15 00:21:11;;;;;;;7.03;4.00;;;;;;;28.37;50.01;100748.83;127934;1090;64128;-84
2021/07/15 00:23:37;;;;;;;5.57;4.27;;;;;;;28.37;49.80;100752.42;127950;1087;64275;-84
2021/07/15 00:26:07;;;;;;;4.83;3.73;;;;;;;28.37;49.95;100746.99;127885;1088;64144;-84
2021/07/15 00:28:43;;;;;;;4.87;3.90;;;;;;;28.37;49.73;100751.55;127913;1087;64265;-84
2021/07/15 00:31:12;;;;;;;5.77;3.80;;;;;;;28.36;49.47;100753.42;127908;1087;64301;-84
2021/07/15 00:33:42;;;;;;;4.73;3.70;;;;;;;28.37;49.73;100754.27;127887;1087;64234;-84
2021/07/15 00:36:16;;;;;;;5.60;3.50;;;;;;;28.36;50.07;100749.84;127900;1087;64413;-84
2021/07/15 00:38:43;;;;;;;5.77;4.03;;;;;;;28.36;49.75;100753.42;127908;1087;64106;-84
2021/07/15 00:41:09;;;;;;;6.27;4.20;;;;;;;28.36;49.73;100753.42;127926;1087;64311;-84
2021/07/15 00:43:35;;;;;;;6.50;3.93;;;;;;;28.36;49.99;100748.00;127898;1087;62888;-84
2021/07/15 00:46:02;;;;;;;5.73;3.77;;;;;;;28.36;49.99;100736.27;127975;1087;64336;-84
2021/07/15 00:48:39;;;;;;;5.83;4.17;;;;;;;28.37;49.92;100744.27;127955;1087;64138;-83
2021/07/15 00:51:06;;;;;;;5.67;3.83;;;;;;;28.36;49.66;100742.56;128067;1087;64278;-84
2021/07/15 00:53:34;;;;;;;5.00;3.83;;;;;;;28.35;49.67;100743.57;128365;1087;64102;-83
2021/07/15 00:56:09;;;;;;;5.47;4.03;;;;;;;28.37;49.87;100743.41;128348;1086;64175;-84
2021/07/15 00:58:36;;;;;;;5.90;3.63;;;;;;;28.36;50.01;100748.00;128405;1085;64139;-83
2021/07/15 01:01:09;;;;;;;5.00;3.60;;;;;;;28.37;50.03;100751.55;128377;1085;64348;-85
2021/07/15 01:04:05;;;;;;;4.90;3.60;;;;;;;28.36;49.93;100739.84;128374;1085;64840;-84
2021/07/15 01:06:40;;;;;;;5.30;3.50;;;;;;;28.35;49.73;100743.57;128368;1085;64659;-83
2021/07/15 01:09:10;;;;;;;5.53;3.80;;;;;;;28.37;49.72;100746.12;128417;1087;64179;-84
2021/07/15 01:12:27;;;;;;;5.77;3.93;;;;;;;28.36;49.83;100744.41;128345;1087;64211;-84
2021/07/15 01:14:58;;;;;;;;;;;;;;;28.34;49.76;100744.58;128400;1086;64217;-84
2021/07/15 01:17:27;;;;;;;5.90;3.90;;;;;;;28.34;50.14;100744.58;128382;1085;64182;-84
2021/07/15 01:20:18;;;;;;;5.90;3.90;;;;;;;28.34;50.03;100741.86;128392;1087;64134;-84
2021/07/15 01:23:06;;;;;;;4.67;3.60;;;;;;;28.34;50.19;100741.86;128350;1087;64140;-84
2021/07/15 01:26:15;;;;;;;5.53;4.13;;;;;;;28.34;50.00;100738.30;128375;1087;64104;-84
2021/07/15 01:29:29;;;;;;;5.90;3.70;;;;;;;28.34;49.64;100738.30;128394;1087;64281;-84
2021/07/15 01:32:01;;;;;;;5.37;3.70;;;;;;;28.34;49.89;100736.43;128410;1084;63966;-84
2021/07/15 01:34:28;;;;;;;5.80;3.43;;;;;;;28.33;49.85;100739.31;128383;1087;64134;-84
2021/07/15 01:37:17;;;;;;;4.50;3.50;;;;;;;28.34;49.94;100746.45;128369;1087;64334;-84
2021/07/15 01:39:44;;;;;;;5.97;3.70;;;;;;;28.33;50.02;100737.47;128377;1087;64131;-84
2021/07/15 01:42:19;;;;;;;5.10;3.57;;;;;;;28.34;50.32;100732.88;128377;1086;64114;-84
2021/07/15 01:45:06;;;;;;;5.93;3.37;;;;;;;28.33;50.04;100728.45;128340;1087;64372;-84
2021/07/15 01:47:36;;;;;;;5.47;3.70;;;;;;;28.33;49.74;100731.16;128347;1087;64138;-84
2021/07/15 01:50:04;;;;;;;5.93;3.93;;;;;;;28.34;50.03;100732.88;128381;1087;64163;-84
2021/07/15 01:52:31;;;;;;;5.63;3.90;;;;;;;28.33;50.07;100734.75;128410;1087;64450;-86
2021/07/15 01:55:01;;;;;;;5.23;4.17;;;;;;;28.34;50.07;100735.59;128384;1087;64195;-84
2021/07/15 01:57:28;;;;;;;5.85;3.93;;;;;;;28.33;50.17;100723.89;128390;1085;64102;-84
2021/07/15 01:59:57;;;;;;;5.50;3.43;;;;;;;28.33;50.15;100721.17;128364;1087;64282;-83
2021/07/15 02:02:23;;;;;;;4.90;3.50;;;;;;;28.33;49.98;100726.61;128385;1087;64209;-84
2021/07/15 02:04:59;;;;;;;6.43;3.80;;;;;;;28.33;50.12;100733.88;128380;1087;64160;-84
2021/07/15 02:07:29;;;;;;;5.40;3.60;;;;;;;28.33;50.13;100736.59;128339;1086;64140;-84
2021/07/15 02:09:55;;;;;;;4.40;3.30;;;;;;;28.32;50.29;100733.04;128368;1087;64133;-84
2021/07/15 02:12:25;;;;;;;4.93;3.77;;;;;;;28.33;50.33;100733.88;128404;1086;64134;-85
2021/07/15 02:14:52;;;;;;;5.90;3.53;;;;;;;28.33;50.03;100737.47;128382;1087;64600;-84
2021/07/15 02:17:28;;;;;;;5.00;3.70;;;;;;;28.32;50.28;100737.59;128377;1087;64131;-83
2021/07/15 02:20:02;;;;;;;4.90;3.63;;;;;;;28.33;50.17;100736.59;128397;1086;64249;-84
2021/07/15 02:22:31;;;;;;;5.10;3.70;;;;;;;28.31;50.31;100736.75;128404;1087;64211;-84
2021/07/15 02:25:00;;;;;;;4.53;3.47;;;;;;;28.32;49.94;100735.75;128352;1086;64099;-84
2021/07/15 02:27:30;;;;;;;5.97;3.43;;;;;;;28.31;50.40;100728.61;128373;1087;62010;-84
2021/07/15 02:29:56;;;;;;;8.27;3.90;;;;;;;28.32;50.48;100730.33;128358;1085;64092;-84
2021/07/15 02:32:31;;;;;;;5.20;3.70;;;;;;;28.32;50.38;100734.88;128374;1087;64234;-85
2021/07/15 02:35:01;;;;;;;4.90;3.40;;;;;;;28.32;50.26;100732.17;128371;1084;64144;-84
2021/07/15 02:37:36;;;;;;;6.43;3.60;;;;;;;28.32;50.03;100737.59;128394;1087;64706;-85
2021/07/15 02:40:14;;;;;;;5.00;3.63;;;;;;;28.31;50.47;100728.61;128374;1086;62177;-83
2021/07/15 02:42:46;;;;;;;6.20;3.50;;;;;;;28.32;50.26;100741.19;128362;1087;64173;-83
2021/07/15 02:45:17;;;;;;;5.23;3.50;;;;;;;28.32;50.00;100740.31;128383;1087;63937;-84
2021/07/15 02:47:44;;;;;;;;;;;;;;;28.31;50.47;100731.33;128406;1087;64160;-84
2021/07/15 02:50:14;;;;;;;5.17;3.60;;;;;;;28.29;50.21;100733.33;128361;1086;64156;-84
2021/07/15 02:52:41;;;;;;;5.17;3.47;;;;;;;28.30;50.30;100740.47;128373;1086;64156;-85
2021/07/15 02:55:08;;;;;;;7.17;3.80;;;;;;;28.30;50.45;100735.05;128393;1087;64104;-84
2021/07/15 02:57:44;;;;;;;6.60;4.50;;;;;;;28.30;50.35;100737.76;128383;1087;64230;-84
2021/07/15 03:00:15;;;;;;;5.20;3.60;;;;;;;28.30;50.01;100736.92;128391;1087;64096;-84
2021/07/15 03:03:21;;;;;;;6.33;3.90;;;;;;;28.30;50.39;100735.05;128406;1085;64253;-85
2021/07/15 03:06:24;;;;;;;4.50;3.50;;;;;;;28.29;50.02;100733.33;128328;1087;64264;-84
2021/07/15 03:09:14;;;;;;;5.70;3.60;;;;;;;28.30;50.13;100734.20;127893;1086;64155;-84
2021/07/15 03:12:06;;;;;;;6.67;3.83;;;;;;;28.29;50.02;100736.05;127916;1087;64214;-85
2021/07/15 03:14:58;;;;;;;5.33;3.70;;;;;;;28.29;50.24;100738.77;127917;1090;64103;-84
2021/07/15 03:17:27;;;;;;;6.03;3.73;;;;;;;28.30;50.47;100734.20;127653;1090;64284;-84
2021/07/15 03:19:56;;;;;;;5.97;3.63;;;;;;;28.30;50.44;100743.19;127673;1090;64182;-84
2021/07/15 03:22:25;;;;;;;6.30;3.65;;;;;;;28.30;50.40;100740.47;127689;1090;64746;-84
2021/07/15 03:24:59;;;;;;;5.10;3.97;;;;;;;28.32;50.56;100740.31;127701;1090;64108;-84
2021/07/15 03:27:26;;;;;;;5.37;3.50;;;;;;;28.31;50.01;100738.63;127683;1090;64066;-84
2021/07/15 03:30:02;;;;;;;4.90;3.57;;;;;;;28.32;50.41;100740.31;127690;1090;64144;-84
2021/07/15 03:32:32;;;;;;;6.03;3.77;;;;;;;28.31;50.62;100736.75;127674;1088;64227;-84
2021/07/15 03:34:59;;;;;;;6.85;3.80;;;;;;;28.32;50.34;100732.17;127716;1090;64144;-84
2021/07/15 03:37:25;;;;;;;4.97;3.67;;;;;;;28.32;50.49;100726.73;127689;1090;64118;-84
2021/07/15 03:40:16;;;;;;;6.20;3.90;;;;;;;28.31;49.93;100734.05;127695;1090;64173;-85
2021/07/15 03:42:48;;;;;;;5.17;3.60;;;;;;;28.30;50.54;100735.05;127743;1087;64144;-84
2021/07/15 03:45:16;;;;;;;5.77;3.83;;;;;;;28.30;50.36;100735.05;127905;1087;64272;-85
2021/07/15 03:47:52;;;;;;;6.38;3.68;;;;;;;28.31;50.35;100727.77;127906;1089;64327;-84
2021/07/15 03:50:27;;;;;;;8.27;3.83;;;;;;;28.30;50.31;100723.34;127923;1085;64249;-84
2021/07/15 03:53:05;;;;;;;7.47;3.97;;;;;;;28.29;50.27;100721.64;127929;1087;64137;-84
2021/07/15 03:55:35;;;;;;;6.93;4.03;;;;;;;28.29;49.97;100727.06;128063;1085;64147;-85
2021/07/15 03:58:07;;;;;;;6.13;3.90;;;;;;;28.28;49.89;100734.37;128389;1087;63347;-85
2021/07/15 04:00:34;;;;;;;7.43;4.37;;;;;;;28.28;50.26;100733.50;128379;1087;64096;-84
2021/07/15 04:03:01;;;;;;;6.13;4.10;;;;;;;28.26;49.71;100729.11;128349;1086;64153;-84
2021/07/15 04:05:41;;;;;;;8.27;4.73;;;;;;;28.25;50.13;100735.54;128377;1087;61760;-84
2021/07/15 04:08:12;;;;;;;9.00;4.27;;;;;;;28.25;49.48;100731.95;128383;1085;64092;-84
2021/07/15 04:10:39;;;;;;;10.00;4.20;;;;;;;28.25;49.76;100729.23;128366;1087;64188;-84
2021/07/15 04:13:05;;;;;;;12.17;5.03;;;;;;;28.24;49.51;100741.13;128352;1085;64141;-84
2021/07/15 04:15:52;;;;;;;8.43;4.27;;;;;;;28.23;49.50;100740.26;128408;1087;64125;-85
2021/07/15 04:18:28;;;;;;;8.20;4.57;;;;;;;28.23;49.16;100733.98;128379;1086;64102;-84
2021/07/15 04:21:06;;;;;;;8.80;4.80;;;;;;;28.24;49.01;100732.98;128375;1087;64591;-85
2021/07/15 04:23:32;;;;;;;9.80;4.43;;;;;;;28.23;49.11;100726.69;128360;1086;64094;-84
2021/07/15 04:26:08;;;;;;;11.87;5.00;;;;;;;28.24;48.83;100722.13;128380;1087;64316;-84
2021/07/15 04:28:35;;;;;;;11.63;4.70;;;;;;;28.24;49.08;100722.13;128403;1087;64147;-83
2021/07/15 04:31:20;;;;;;;11.33;5.10;;;;;;;28.25;48.80;100721.09;128368;1087;64215;-84
2021/07/15 04:33:46;;;;;;;8.13;4.70;;;;;;;28.25;48.67;100719.25;128358;1086;64236;-85
2021/07/15 04:36:13;;;;;;;13.60;5.03;;;;;;;28.26;48.51;100725.52;128459;1085;64227;-83
2021/07/15 04:39:03;;;;;;;8.27;5.00;;;;;;;28.26;48.40;100730.95;128396;1087;64131;-83
2021/07/15 04:41:37;;;;;;;9.40;4.67;;;;;;;28.27;48.55;100719.09;127909;1087;64387;-83
2021/07/15 04:44:15;;;;;;;12.87;5.30;;;;;;;28.27;48.31;100727.23;127808;1087;64162;-83
2021/07/15 04:46:41;;;;;;;12.20;5.33;;;;;;;28.28;48.29;100723.52;127816;1087;64143;-83
2021/07/15 04:49:16;;;;;;;11.87;5.43;;;;;;;28.29;48.25;100732.49;127826;1087;64406;-84
2021/07/15 04:51:42;;;;;;;16.17;5.90;;;;;;;28.29;48.25;100733.33;127820;1087;64145;-83
2021/07/15 04:54:13;;;;;;;14.70;5.73;;;;;;;28.30;48.13;100734.20;127817;1087;64156;-83
2021/07/15 04:56:39;;;;;;;13.10;5.70;;;;;;;28.30;47.64;100729.62;127885;1087;64273;-84
2021/07/15 04:59:14;;;;;;;15.27;5.97;;;;;;;28.32;47.65;100734.88;127948;1087;64275;-84
2021/07/15 05:01:43;;;;;;;12.97;5.17;;;;;;;28.32;47.50;100733.04;127929;1087;64217;-83
2021/07/15 05:04:19;;;;;;;12.17;5.10;;;;;;;28.33;47.83;100731.16;127844;1089;64233;-82
2021/07/15 05:06:45;;;;;;;17.27;5.30;;;;;;;28.34;47.61;100732.88;127894;1087;64168;-83
2021/07/15 05:09:11;;;;;;;9.47;5.00;;;;;;;28.34;47.55;100736.43;127926;1087;64228;-84
2021/07/15 05:11:40;;;;;;;11.10;5.23;;;;;;;28.35;47.15;100726.44;127908;1087;64182;-85
2021/07/15 05:14:15;;;;;;;13.87;5.43;;;;;;;28.35;47.31;100727.28;127874;1087;64275;-84
2021/07/15 05:16:50;;;;;;;10.57;5.13;;;;;;;28.37;47.39;100732.55;127886;1087;64334;-83
2021/07/15 05:19:16;;;;;;;9.00;4.70;;;;;;;28.37;46.98;100729.83;128093;1087;64236;-84
2021/07/15 05:21:43;;;;;;;12.50;5.43;;;;;;;28.37;47.26;100727.98;128380;1087;64234;-84
2021/07/15 05:24:12;;;;;;;12.63;5.40;;;;;;;28.38;47.19;100718.81;128378;1087;64120;-84
2021/07/15 05:26:39;;;;;;;12.47;5.13;;;;;;;28.38;46.86;100724.23;128385;1087;64284;-83
2021/07/15 05:29:08;;;;;;;12.83;5.70;;;;;;;28.39;46.84;100725.11;128359;1087;64126;-84
2021/07/15 05:31:43;;;;;;;14.10;5.77;;;;;;;28.38;46.76;100726.95;128332;1087;64153;-84
2021/07/15 05:34:10;;;;;;;13.45;5.20;;;;;;;28.39;46.93;100733.25;128357;1085;64031;-84
2021/07/15 05:36:41;;;;;;;11.40;5.60;;;;;;;28.39;46.99;100730.53;128381;1086;64256;-83
2021/07/15 05:39:08;;;;;;;10.30;5.83;;;;;;;28.39;46.87;100734.09;128386;1087;64158;-83
2021/07/15 05:41:34;;;;;;;11.40;5.90;;;;;;;28.41;46.56;100731.21;128335;1087;64222;-82
2021/07/15 05:44:01;;;;;;;10.30;5.20;;;;;;;28.42;46.62;100733.77;128290;1087;64154;-84
2021/07/15 05:46:27;;;;;;;11.13;5.70;;;;;;;28.43;46.45;100731.92;128326;1087;64591;-84
2021/07/15 05:49:00;;;;;;;14.43;5.67;;;;;;;28.45;46.49;100739.89;128332;1085;64170;-84
2021/07/15 05:51:38;;;;;;;11.40;5.93;;;;;;;28.45;46.49;100740.73;128336;1087;64556;-83
2021/07/15 05:54:05;;;;;;;11.23;5.90;;;;;;;28.46;46.16;100741.61;128347;1087;64103;-84
2021/07/15 05:56:38;;;;;;;12.07;5.57;;;;;;;28.46;46.43;100739.73;128381;1087;64322;-85
2021/07/15 05:59:15;;;;;;;10.77;5.77;;;;;;;28.48;46.43;100743.16;128349;1087;64176;-84
2021/07/15 06:01:42;;;;;;;15.40;5.83;;;;;;;28.49;46.27;100743.99;128382;1085;64139;-84
2021/07/15 06:04:31;;;;;;;10.57;5.47;;;;;;;28.49;46.00;100739.40;128367;1085;64391;-84
2021/07/15 06:06:58;;;;;;;9.83;5.10;;;;;;;28.50;45.89;100735.69;128370;1087;64099;-84
2021/07/15 06:09:27;;;;;;;9.10;5.07;;;;;;;28.52;45.92;100746.38;128359;1086;64234;-84
2021/07/15 06:11:54;;;;;;;13.87;5.10;;;;;;;28.53;45.88;100750.80;128343;1087;64140;-84
2021/07/15 06:14:26;;;;;;;8.43;4.77;;;;;;;28.53;45.78;100748.95;128374;1086;64249;-87
2021/07/15 06:16:58;;;;;;;11.97;5.30;;;;;;;28.54;45.92;100753.35;128364;1087;64176;-84
2021/07/15 06:19:25;;;;;;;10.87;5.07;;;;;;;28.55;45.71;100746.08;128380;1087;64138;-84
2021/07/15 06:21:51;;;;;;;13.37;5.53;;;;;;;28.56;45.38;100750.47;128363;1087;64127;-85
2021/07/15 06:24:27;;;;;;;11.47;5.40;;;;;;;28.56;45.54;100745.04;128329;1086;64227;-84
2021/07/15 06:26:56;;;;;;;7.83;5.27;;;;;;;28.56;45.34;100747.76;128367;1087;64099;-84
2021/07/15 06:29:28;;;;;;;13.60;5.35;;;;;;;28.56;45.53;100737.77;128270;1087;64198;-83
2021/07/15 06:31:54;;;;;;;10.53;5.37;;;;;;;28.57;45.19;100738.61;128202;1085;64102;-83
2021/07/15 06:34:22;;;;;;;8.53;4.90;;;;;;;28.58;45.15;100735.72;128187;1087;64281;-83
2021/07/15 06:36:48;;;;;;;13.27;5.10;;;;;;;28.58;44.98;100726.73;128271;1087;62293;-83
2021/07/15 06:39:15;;;;;;;8.73;4.80;;;;;;;28.59;45.02;100732.00;128217;1086;64099;-84
2021/07/15 06:41:47;;;;;;;10.37;5.13;;;;;;;28.59;45.17;100726.57;128249;1086;64284;-84
2021/07/15 06:44:13;;;;;;;12.67;5.40;;;;;;;28.60;44.67;100719.30;128304;1087;64668;-85
2021/07/15 06:46:41;;;;;;;11.00;4.87;;;;;;;28.62;44.61;100721.84;128368;1087;64042;-84
2021/07/15 06:49:10;;;;;;;10.43;5.13;;;;;;;28.62;44.47;100724.56;128362;1086;64099;-84
2021/07/15 06:51:37;;;;;;;9.43;5.20;;;;;;;28.63;44.35;100728.95;128372;1087;64138;-83
2021/07/15 06:54:04;;;;;;;7.67;5.07;;;;;;;28.63;44.65;100726.23;128360;1087;64096;-84
2021/07/15 06:56:30;;;;;;;13.57;5.30;;;;;;;28.62;44.54;100728.12;128384;1085;64127;-84
2021/07/15 06:58:59;;;;;;;11.60;5.30;;;;;;;28.63;44.36;100726.23;128312;1085;64276;-82
2021/07/15 07:01:26;;;;;;;11.10;5.43;;;;;;;28.63;44.53;100728.95;128225;1086;64135;-82
2021/07/15 07:03:52;;;;;;;10.43;4.80;;;;;;;28.64;44.46;100727.95;128226;1085;64368;-82
2021/07/15 07:06:18;;;;;;;8.90;4.63;;;;;;;28.63;44.06;100732.55;128236;1087;64166;-82
2021/07/15 07:08:48;;;;;;;10.43;5.03;;;;;;;28.65;44.12;100732.41;128314;1086;64159;-83
2021/07/15 07:11:14;;;;;;;12.53;4.67;;;;;;;28.63;44.08;100732.55;128354;1086;64172;-84
2021/07/15 07:13:43;;;;;;;8.00;4.20;;;;;;;28.64;44.05;100736.09;128350;1087;64303;-84
2021/07/15 07:16:10;;;;;;;9.13;4.90;;;;;;;28.64;43.63;100733.38;128329;1086;64264;-84
2021/07/15 07:18:39;;;;;;;9.77;4.50;;;;;;;28.63;43.93;100735.26;128265;1086;64083;-83
2021/07/15 07:21:05;;;;;;;;;;;;;;;28.61;43.84;100731.84;128356;1087;64392;-84
2021/07/15 07:23:33;;;;;;;8.17;4.50;;;;;;;28.61;43.72;100723.69;128325;1087;64076;-84
2021/07/15 07:25:59;;;;;;;9.80;4.83;;;;;;;28.63;43.45;100728.95;128323;1086;64250;-84
2021/07/15 07:28:27;;;;;;;11.57;4.80;;;;;;;28.61;43.22;100726.41;128373;1085;64028;-83
2021/07/15 07:30:54;;;;;;;11.57;4.47;;;;;;;28.62;43.18;100727.28;128243;1087;64099;-82
2021/07/15 07:33:21;;;;;;;11.87;5.00;;;;;;;28.61;43.22;100723.69;128296;1086;64134;-83
2021/07/15 07:35:47;;;;;;;8.93;4.67;;;;;;;28.61;43.06;100729.13;128354;1087;64603;-84
2021/07/15 07:38:23;;;;;;;8.10;4.20;;;;;;;28.62;43.10;100725.40;128238;1085;64792;-83
2021/07/15 07:41:12;;;;;;;7.37;4.00;;;;;;;28.62;42.52;100722.69;128236;1087;65024;-83
2021/07/15 07:43:39;;;;;;;6.07;3.93;;;;;;;28.63;42.88;100724.39;127778;1087;64259;-83
2021/07/15 07:46:05;;;;;;;9.60;3.90;;;;;;;28.64;42.91;100727.95;127784;1087;64288;-80
2021/07/15 07:48:31;;;;;;;7.40;4.50;;;;;;;28.64;42.62;100719.80;127760;1087;64249;-83
2021/07/15 07:50:58;;;;;;;8.00;4.37;;;;;;;28.64;42.75;100727.95;127743;1087;64142;-81
2021/07/15 07:53:27;;;;;;;6.93;4.13;;;;;;;28.65;42.45;100730.53;127788;1087;64107;-84
2021/07/15 07:55:54;;;;;;;7.97;4.10;;;;;;;28.66;42.15;100723.25;127847;1087;64320;-82
2021/07/15 07:58:21;;;;;;;5.67;4.00;;;;;;;28.65;42.35;100729.69;127830;1087;64272;-83
2021/07/15 08:00:48;;;;;;;8.60;4.23;;;;;;;28.66;41.92;100728.69;127749;1087;64607;-83
2021/07/15 08:03:17;;;;;;;7.93;4.17;;;;;;;28.66;42.42;100725.97;127907;1087;64275;-84
2021/07/15 08:05:45;;;;;;;10.80;4.10;;;;;;;28.66;42.22;100723.25;127943;1087;64135;-83
2021/07/15 08:08:12;;;;;;;8.67;3.37;;;;;;;28.66;41.99;100728.69;127917;1087;64140;-84
2021/07/15 08:10:42;;;;;;;8.40;3.73;;;;;;;28.66;42.27;100723.25;127894;1087;64131;-83
2021/07/15 08:13:08;;;;;;;7.73;3.80;;;;;;;28.66;42.20;100723.25;127882;1087;64141;-84
2021/07/15 08:15:35;;;;;;;8.25;3.40;;;;;;;28.65;42.01;100722.38;127939;1087;64279;-83
2021/07/15 08:18:02;;;;;;;9.00;3.97;;;;;;;28.65;41.34;100719.66;127860;1087;63154;-83
2021/07/15 08:20:28;;;;;;;8.90;4.13;;;;;;;28.65;41.47;100721.55;127835;1086;64319;-81
2021/07/15 08:22:54;;;;;;;7.43;3.50;;;;;;;28.66;41.40;100715.11;128256;1087;64295;-82
2021/07/15 08:25:23;;;;;;;6.20;3.73;;;;;;;28.65;41.40;100716.95;128339;1085;64278;-82
2021/07/15 08:27:50;;;;;;;;;;;;;;;28.65;41.39;100714.23;129303;1084;62368;-82
2021/07/15 08:30:17;;;;;;;5.60;3.43;;;;;;;28.66;41.25;100715.11;128284;1087;64138;-82
2021/07/15 08:32:43;;;;;;;6.37;3.50;;;;;;;28.66;41.49;100706.95;127832;1087;64661;-82
2021/07/15 08:35:12;;;;;;;7.27;3.63;;;;;;;28.67;41.49;100711.39;128231;1085;64296;-82
2021/07/15 08:37:42;;;;;;;8.07;4.10;;;;;;;28.66;41.26;100710.52;128258;1086;64206;-82
2021/07/15 08:40:09;;;;;;;6.70;3.80;;;;;;;28.68;41.53;100713.06;128260;1087;64607;-82
2021/07/15 08:42:37;;;;;;;6.47;3.40;;;;;;;28.68;40.81;100710.34;128212;1086;64352;-82
2021/07/15 08:45:07;;;;;;;8.63;3.30;;;;;;;28.68;40.83;100711.22;128210;1085;64156;-82
2021/07/15 08:47:37;;;;;;;6.37;3.17;;;;;;;28.69;40.78;100706.63;128207;1085;64294;-82
2021/07/15 08:50:05;;;;;;;10.80;3.20;;;;;;;28.68;40.23;100713.94;128178;1085;64214;-83
2021/07/15 08:52:34;;;;;;;6.90;3.30;;;;;;;28.68;39.90;100702.20;128165;1087;64250;-82
2021/07/15 08:55:21;;;;;;;8.23;3.48;;;;;;;28.67;39.91;100697.80;128613;1087;62396;-83
2021/07/15 08:57:49;;;;;;;;;;;;;;;28.67;40.10;100705.95;128423;1086;62068;-84
2021/07/15 09:00:19;;;;;;;7.00;3.23;;;;;;;28.67;40.15;100697.80;128332;1087;64118;-83
2021/07/15 09:02:45;;;;;;;7.23;3.33;;;;;;;28.67;39.69;100698.64;128266;1087;64096;-83
2021/07/15 09:05:12;;;;;;;7.80;3.20;;;;;;;28.67;39.34;100701.36;128231;1087;64149;-83
2021/07/15 09:07:40;;;;;;;5.70;3.20;;;;;;;28.67;39.61;100693.21;128233;1085;64172;-84
2021/07/15 09:10:08;;;;;;;6.33;3.27;;;;;;;28.67;39.50;100687.78;128194;1087;65882;-83
2021/07/15 09:12:35;;;;;;;5.30;3.20;;;;;;;28.67;39.91;100690.49;128218;1087;64095;-83
2021/07/15 09:15:06;;;;;;;6.20;3.50;;;;;;;28.68;39.68;100681.34;128288;1087;64120;-83
2021/07/15 09:17:38;;;;;;;10.60;3.30;;;;;;;28.68;39.55;100675.03;128248;1086;64144;-83
2021/07/15 09:20:09;;;;;;;6.17;3.20;;;;;;;28.68;39.79;100684.05;129283;1085;64134;-81
2021/07/15 09:23:04;;;;;;;9.67;3.50;;;;;;;28.70;39.75;100684.73;128269;1087;64211;-81
2021/07/15 09:25:36;;;;;;;7.53;3.20;;;;;;;28.70;39.93;100682.02;128183;1087;64208;-83
2021/07/15 09:28:10;;;;;;;5.83;3.47;;;;;;;28.70;39.68;100682.02;128237;1085;64141;-83
2021/07/15 09:30:38;;;;;;;5.23;3.03;;;;;;;28.71;39.75;100678.29;128358;1084;64130;-83
2021/07/15 09:33:08;;;;;;;12.77;3.47;;;;;;;28.71;39.02;100672.86;128327;1086;64150;-83
2021/07/15 09:35:37;;;;;;;6.40;3.23;;;;;;;28.70;39.28;100675.74;128289;1087;64192;-83
2021/07/15 09:38:11;;;;;;;6.30;3.13;;;;;;;28.71;39.04;100677.45;128335;1087;64090;-84
2021/07/15 09:40:43;;;;;;;9.77;3.60;;;;;;;28.70;38.84;100670.31;128325;1087;64671;-83
2021/07/15 09:43:16;;;;;;;6.37;3.30;;;;;;;28.71;38.93;100666.59;128267;1086;64172;-83
2021/07/15 09:45:44;;;;;;;6.80;3.37;;;;;;;28.70;39.08;100671.14;128348;1087;64281;-83
2021/07/15 09:48:14;;;;;;;5.87;3.43;;;;;;;28.69;39.21;100655.86;128210;1086;64156;-85
2021/07/15 09:50:41;;;;;;;7.83;3.48;;;;;;;28.69;39.15;100664.01;128340;1085;64106;-84
2021/07/15 09:53:14;;;;;;;6.87;3.30;;;;;;;28.68;39.03;100651.47;128298;1086;64156;-83
2021/07/15 09:55:51;;;;;;;6.45;3.25;;;;;;;28.68;39.29;100647.88;128356;1087;64337;-84
2021/07/15 09:58:17;;;;;;;5.43;3.10;;;;;;;28.69;39.18;100647.70;128352;1087;64135;-84
2021/07/15 10:00:48;;;;;;;6.43;2.97;;;;;;;28.68;39.25;100645.16;128357;1087;64150;-83
2021/07/15 10:03:18;;;;;;;5.77;3.20;;;;;;;28.68;38.96;100647.88;128365;1086;64276;-84
2021/07/15 10:05:54;;;;;;;7.07;3.30;;;;;;;28.67;39.28;100647.04;128377;1086;64387;-84
2021/07/15 10:08:31;;;;;;;6.80;3.23;;;;;;;28.66;39.38;100642.61;128296;1087;64285;-84
2021/07/15 10:11:17;;;;;;;8.70;3.50;;;;;;;28.67;39.15;100638.89;128482;1087;64131;-83
2021/07/15 10:13:48;;;;;;;9.17;3.40;;;;;;;28.67;38.98;100638.89;128365;1087;64138;-84
2021/07/15 10:16:23;;;;;;;5.67;3.30;;;;;;;28.67;39.41;100644.33;128046;1086;64109;-84
2021/07/15 10:18:59;;;;;;;6.87;2.90;;;;;;;28.66;39.04;100642.61;128395;1087;64142;-83
2021/07/15 10:21:30;;;;;;;6.37;3.07;;;;;;;28.66;39.22;100642.61;128366;1087;64137;-85
2021/07/15 10:24:18;;;;;;;6.80;3.47;;;;;;;28.66;39.22;100639.90;128359;1087;64131;-84
2021/07/15 10:26:48;;;;;;;6.60;3.13;;;;;;;28.66;39.34;100647.20;128356;1087;64167;-84
2021/07/15 10:29:15;;;;;;;5.13;3.20;;;;;;;28.66;39.08;100639.90;128381;1087;64620;-84
2021/07/15 10:31:42;;;;;;;6.10;3.37;;;;;;;28.64;38.95;100641.95;128391;1087;64151;-84
2021/07/15 10:34:09;;;;;;;7.00;3.13;;;;;;;28.66;38.97;100639.06;128316;1087;64136;-84
2021/07/15 10:36:36;;;;;;;7.77;3.23;;;;;;;28.65;39.51;100642.78;128402;1087;64330;-84
2021/07/15 10:39:10;;;;;;;5.60;3.27;;;;;;;28.65;39.32;100642.78;128395;1087;63987;-83
2021/07/15 10:41:46;;;;;;;5.77;3.30;;;;;;;28.65;39.49;100640.91;128367;1087;64134;-84
2021/07/15 10:44:12;;;;;;;9.63;3.70;;;;;;;28.64;39.55;100631.08;128351;1087;64179;-84
2021/07/15 10:46:39;;;;;;;7.10;3.47;;;;;;;28.65;39.35;100629.20;128359;1086;64665;-83
2021/07/15 10:49:08;;;;;;;5.40;3.40;;;;;;;28.64;39.15;100633.80;128365;1087;64163;-84
2021/07/15 10:51:44;;;;;;;8.13;3.57;;;;;;;28.64;39.20;100633.80;128339;1087;63993;-86
2021/07/15 10:54:10;;;;;;;6.20;3.97;;;;;;;28.64;39.42;100622.94;128373;1087;64275;-83
2021/07/15 10:56:38;;;;;;;7.60;3.35;;;;;;;28.64;39.60;100633.80;128384;1087;65041;-84
2021/07/15 10:59:28;;;;;;;6.00;3.70;;;;;;;28.64;39.42;100624.75;128385;1087;64026;-83
2021/07/15 11:01:59;;;;;;;5.30;3.57;;;;;;;28.65;39.52;100615.63;128372;1087;64245;-85
2021/07/15 11:04:48;;;;;;;7.10;3.67;;;;;;;28.65;39.27;100618.34;128389;1087;64093;-84
2021/07/15 11:07:31;;;;;;;6.17;3.43;;;;;;;28.65;39.81;100621.06;127973;1086;64249;-83
2021/07/15 11:10:23;;;;;;;5.90;3.55;;;;;;;28.64;39.85;100617.50;128361;1085;64101;-83
2021/07/15 11:13:05;;;;;;;6.40;3.87;;;;;;;28.64;39.71;100613.88;128358;1085;64166;-84
2021/07/15 11:15:48;;;;;;;5.90;3.90;;;;;;;28.64;39.62;100614.78;128036;1087;64284;-83
2021/07/15 11:18:43;;;;;;;7.87;4.00;;;;;;;28.65;39.29;100599.33;128400;1087;64217;-84
2021/07/15 11:21:46;;;;;;;6.10;3.70;;;;;;;28.64;39.45;100611.17;128369;1087;64227;-84
2021/07/15 11:24:40;;;;;;;6.13;3.67;;;;;;;28.64;39.76;100603.02;127875;1087;65629;-84
2021/07/15 11:27:31;;;;;;;5.37;3.50;;;;;;;28.64;39.86;100597.59;127909;1087;64137;-84
2021/07/15 11:29:59;;;;;;;7.03;3.73;;;;;;;28.65;39.56;100602.05;127888;1087;64221;-83
2021/07/15 11:32:29;;;;;;;5.70;3.70;;;;;;;28.63;39.82;100591.32;127933;1087;64217;-83
2021/07/15 11:34:55;;;;;;;5.57;3.60;;;;;;;28.64;39.60;100592.16;127881;1087;65983;-85
2021/07/15 11:38:03;;;;;;;5.07;3.40;;;;;;;28.64;39.91;100590.34;127894;1087;64149;-85
2021/07/15 11:40:55;;;;;;;6.00;3.40;;;;;;;28.64;39.58;100581.30;127678;1090;64147;-84